Terminal Aerodrome Forecast
Issued by NWS

Home | Current Version | Previous Version | Text Only | Print | Product List | Glossary On
Versions: 1 2 3 4 5 6 7 8 9 10 11 12 13 14 15 16 17 18 19 20
112
FTUS44 KSJT 301528 AAA
TAFJCT
TAF AMD
KJCT 301528Z 3015/3112 18009KT P6SM SCT150
     FM301700 16010KT P6SM BKN050
     FM310600 15006KT P6SM OVC025=

USA.gov is the U.S. government's official web portal to all federal, state and local government web resources and services.